sensor_id;sensor_type;location;lat;lon;timestamp;temperature;humidity
18266;DHT22;9259;48.194;16.322;2023-04-24T00:01:09;14.60;99.90
18266;DHT22;9259;48.194;16.322;2023-04-24T00:03:39;14.60;99.90
18266;DHT22;9259;48.194;16.322;2023-04-24T00:06:07;14.60;99.90
18266;DHT22;9259;48.194;16.322;2023-04-24T00:08:38;14.60;99.90
18266;DHT22;9259;48.194;16.322;2023-04-24T00:11:06;14.60;99.90
18266;DHT22;9259;48.194;16.322;2023-04-24T00:13:35;14.60;99.90
18266;DHT22;9259;48.194;16.322;2023-04-24T00:16:03;14.60;99.90
18266;DHT22;9259;48.194;16.322;2023-04-24T00:18:33;14.50;99.90
18266;DHT22;9259;48.194;16.322;2023-04-24T00:21:01;14.60;99.90
18266;DHT22;9259;48.194;16.322;2023-04-24T00:23:29;14.60;99.90
18266;DHT22;9259;48.194;16.322;2023-04-24T00:25:57;14.50;99.90
18266;DHT22;9259;48.194;16.322;2023-04-24T00:28:24;15.00;99.90
18266;DHT22;9259;48.194;16.322;2023-04-24T00:30:52;14.40;99.90
18266;DHT22;9259;48.194;16.322;2023-04-24T00:33:20;14.40;99.90
18266;DHT22;9259;48.194;16.322;2023-04-24T00:35:50;14.40;99.90
18266;DHT22;9259;48.194;16.322;2023-04-24T00:38:18;14.40;99.90
18266;DHT22;9259;48.194;16.322;2023-04-24T00:40:46;14.40;99.90
18266;DHT22;9259;48.194;16.322;2023-04-24T00:43:14;14.40;99.90
18266;DHT22;9259;48.194;16.322;2023-04-24T00:45:42;14.40;99.90
18266;DHT22;9259;48.194;16.322;2023-04-24T00:48:11;14.40;99.90
18266;DHT22;9259;48.194;16.322;2023-04-24T00:50:39;14.30;99.90
18266;DHT22;9259;48.194;16.322;2023-04-24T00:53:09;14.30;99.90
18266;DHT22;9259;48.194;16.322;2023-04-24T00:55:36;14.40;99.90
18266;DHT22;9259;48.194;16.322;2023-04-24T00:58:05;14.30;99.90
18266;DHT22;9259;48.194;16.322;2023-04-24T01:00:32;14.30;99.90
18266;DHT22;9259;48.194;16.322;2023-04-24T01:03:01;14.30;99.90
18266;DHT22;9259;48.194;16.322;2023-04-24T01:05:33;14.30;99.90
18266;DHT22;9259;48.194;16.322;2023-04-24T01:08:01;13.60;99.90
18266;DHT22;9259;48.194;16.322;2023-04-24T01:10:33;14.20;99.90
18266;DHT22;9259;48.194;16.322;2023-04-24T01:13:02;14.20;99.90
18266;DHT22;9259;48.194;16.322;2023-04-24T01:15:30;14.20;99.90
18266;DHT22;9259;48.194;16.322;2023-04-24T01:17:58;14.20;99.90
18266;DHT22;9259;48.194;16.322;2023-04-24T01:20:26;14.10;99.90
18266;DHT22;9259;48.194;16.322;2023-04-24T01:22:56;14.20;99.90
18266;DHT22;9259;48.194;16.322;2023-04-24T01:25:26;14.20;99.90
18266;DHT22;9259;48.194;16.322;2023-04-24T01:27:55;14.20;99.90
18266;DHT22;9259;48.194;16.322;2023-04-24T01:30:23;14.10;99.90
18266;DHT22;9259;48.194;16.322;2023-04-24T01:32:51;14.10;99.90
18266;DHT22;9259;48.194;16.322;2023-04-24T01:35:19;13.90;99.90
18266;DHT22;9259;48.194;16.322;2023-04-24T01:37:47;13.90;99.90
18266;DHT22;9259;48.194;16.322;2023-04-24T01:40:16;13.90;99.90
18266;DHT22;9259;48.194;16.322;2023-04-24T01:42:45;13.90;99.90
18266;DHT22;9259;48.194;16.322;2023-04-24T01:45:13;13.80;99.90
18266;DHT22;9259;48.194;16.322;2023-04-24T01:47:41;13.80;99.90
18266;DHT22;9259;48.194;16.322;2023-04-24T01:50:09;13.80;99.90
18266;DHT22;9259;48.194;16.322;2023-04-24T01:52:37;13.70;99.90
18266;DHT22;9259;48.194;16.322;2023-04-24T01:55:06;13.70;99.90
18266;DHT22;9259;48.194;16.322;2023-04-24T01:57:36;13.50;99.90
18266;DHT22;9259;48.194;16.322;2023-04-24T02:00:05;13.20;99.90
18266;DHT22;9259;48.194;16.322;2023-04-24T02:02:34;13.00;99.90
18266;DHT22;9259;48.194;16.322;2023-04-24T02:05:02;12.80;99.90
18266;DHT22;9259;48.194;16.322;2023-04-24T02:07:31;12.70;99.90
18266;DHT22;9259;48.194;16.322;2023-04-24T02:09:59;12.80;99.90
18266;DHT22;9259;48.194;16.322;2023-04-24T02:12:27;12.70;99.90
18266;DHT22;9259;48.194;16.322;2023-04-24T02:14:56;12.70;99.90
18266;DHT22;9259;48.194;16.322;2023-04-24T02:17:24;12.70;99.90
18266;DHT22;9259;48.194;16.322;2023-04-24T02:19:52;12.80;99.90
18266;DHT22;9259;48.194;16.322;2023-04-24T02:22:20;12.90;99.90
18266;DHT22;9259;48.194;16.322;2023-04-24T02:24:48;12.90;99.90
18266;DHT22;9259;48.194;16.322;2023-04-24T02:27:16;13.00;99.90
18266;DHT22;9259;48.194;16.322;2023-04-24T02:29:44;13.00;99.90
18266;DHT22;9259;48.194;16.322;2023-04-24T02:32:14;12.90;99.90
18266;DHT22;9259;48.194;16.322;2023-04-24T02:34:42;12.80;99.90
18266;DHT22;9259;48.194;16.322;2023-04-24T02:37:10;12.70;99.90
18266;DHT22;9259;48.194;16.322;2023-04-24T02:39:38;12.60;99.90
18266;DHT22;9259;48.194;16.322;2023-04-24T02:42:05;12.60;99.90
18266;DHT22;9259;48.194;16.322;2023-04-24T02:44:34;12.60;99.90
18266;DHT22;9259;48.194;16.322;2023-04-24T02:47:02;12.50;99.90
18266;DHT22;9259;48.194;16.322;2023-04-24T02:49:31;12.50;99.90
18266;DHT22;9259;48.194;16.322;2023-04-24T02:51:59;12.50;99.90
18266;DHT22;9259;48.194;16.322;2023-04-24T02:54:27;12.50;99.90
18266;DHT22;9259;48.194;16.322;2023-04-24T02:56:55;12.50;99.90
18266;DHT22;9259;48.194;16.322;2023-04-24T02:59:24;12.50;99.90
18266;DHT22;9259;48.194;16.322;2023-04-24T03:01:53;12.50;99.90
18266;DHT22;9259;48.194;16.322;2023-04-24T03:04:21;12.50;99.90
18266;DHT22;9259;48.194;16.322;2023-04-24T03:06:50;12.50;99.90
18266;DHT22;9259;48.194;16.322;2023-04-24T03:09:19;12.50;99.90
18266;DHT22;9259;48.194;16.322;2023-04-24T03:11:47;12.50;99.90
18266;DHT22;9259;48.194;16.322;2023-04-24T03:14:15;12.50;99.90
18266;DHT22;9259;48.194;16.322;2023-04-24T03:16:44;12.50;99.90
18266;DHT22;9259;48.194;16.322;2023-04-24T03:19:12;12.50;99.90
18266;DHT22;9259;48.194;16.322;2023-04-24T03:21:39;12.50;99.90
18266;DHT22;9259;48.194;16.322;2023-04-24T03:24:09;12.40;99.90
18266;DHT22;9259;48.194;16.322;2023-04-24T03:26:37;12.40;99.90
18266;DHT22;9259;48.194;16.322;2023-04-24T03:29:04;12.40;99.90
18266;DHT22;9259;48.194;16.322;2023-04-24T03:31:32;12.50;99.90
18266;DHT22;9259;48.194;16.322;2023-04-24T03:34:00;12.50;99.90
18266;DHT22;9259;48.194;16.322;2023-04-24T03:36:28;12.50;99.90
18266;DHT22;9259;48.194;16.322;2023-04-24T03:38:56;12.60;99.90
18266;DHT22;9259;48.194;16.322;2023-04-24T03:41:26;12.60;99.90
18266;DHT22;9259;48.194;16.322;2023-04-24T03:43:54;12.60;99.90
18266;DHT22;9259;48.194;16.322;2023-04-24T03:46:22;12.60;99.90
18266;DHT22;9259;48.194;16.322;2023-04-24T03:48:50;12.80;99.90
18266;DHT22;9259;48.194;16.322;2023-04-24T03:51:18;12.50;99.90
18266;DHT22;9259;48.194;16.322;2023-04-24T03:53:46;12.70;99.90
18266;DHT22;9259;48.194;16.322;2023-04-24T03:56:13;12.70;99.90
18266;DHT22;9259;48.194;16.322;2023-04-24T03:58:43;12.80;99.90
18266;DHT22;9259;48.194;16.322;2023-04-24T04:01:10;12.80;99.90
18266;DHT22;9259;48.194;16.322;2023-04-24T04:03:39;12.90;99.90
18266;DHT22;9259;48.194;16.322;2023-04-24T04:06:07;12.90;99.90
18266;DHT22;9259;48.194;16.322;2023-04-24T04:08:37;12.90;99.90
18266;DHT22;9259;48.194;16.322;2023-04-24T04:11:05;12.90;99.90
18266;DHT22;9259;48.194;16.322;2023-04-24T04:13:33;13.00;99.90
18266;DHT22;9259;48.194;16.322;2023-04-24T04:16:02;13.00;99.90
18266;DHT22;9259;48.194;16.322;2023-04-24T04:18:30;13.00;99.90
18266;DHT22;9259;48.194;16.322;2023-04-24T04:20:58;13.10;99.90
18266;DHT22;9259;48.194;16.322;2023-04-24T04:23:27;13.10;99.90
18266;DHT22;9259;48.194;16.322;2023-04-24T04:25:56;13.10;99.90
18266;DHT22;9259;48.194;16.322;2023-04-24T04:28:23;13.10;99.90
18266;DHT22;9259;48.194;16.322;2023-04-24T04:30:52;13.20;99.90
18266;DHT22;9259;48.194;16.322;2023-04-24T04:33:23;13.20;99.90
18266;DHT22;9259;48.194;16.322;2023-04-24T04:35:51;13.20;99.90
18266;DHT22;9259;48.194;16.322;2023-04-24T04:38:19;13.20;99.90
18266;DHT22;9259;48.194;16.322;2023-04-24T04:40:47;13.20;99.90
18266;DHT22;9259;48.194;16.322;2023-04-24T04:43:16;13.30;99.90
18266;DHT22;9259;48.194;16.322;2023-04-24T04:45:43;13.20;99.90
18266;DHT22;9259;48.194;16.322;2023-04-24T04:48:11;13.20;99.90
18266;DHT22;9259;48.194;16.322;2023-04-24T04:50:41;13.20;99.90
18266;DHT22;9259;48.194;16.322;2023-04-24T04:53:09;13.30;99.90
18266;DHT22;9259;48.194;16.322;2023-04-24T04:55:37;13.30;99.90
18266;DHT22;9259;48.194;16.322;2023-04-24T04:58:05;13.30;99.90
18266;DHT22;9259;48.194;16.322;2023-04-24T05:00:33;13.30;99.90
18266;DHT22;9259;48.194;16.322;2023-04-24T05:03:02;13.70;99.90
18266;DHT22;9259;48.194;16.322;2023-04-24T05:05:29;13.50;99.90
18266;DHT22;9259;48.194;16.322;2023-04-24T05:07:59;13.50;99.90
18266;DHT22;9259;48.194;16.322;2023-04-24T05:10:27;13.60;99.90
18266;DHT22;9259;48.194;16.322;2023-04-24T05:12:56;13.30;99.90
18266;DHT22;9259;48.194;16.322;2023-04-24T05:15:23;13.60;99.90
18266;DHT22;9259;48.194;16.322;2023-04-24T05:17:51;13.70;99.90
18266;DHT22;9259;48.194;16.322;2023-04-24T05:20:19;13.90;99.90
18266;DHT22;9259;48.194;16.322;2023-04-24T05:22:47;14.00;99.90
18266;DHT22;9259;48.194;16.322;2023-04-24T05:25:17;14.00;99.90
18266;DHT22;9259;48.194;16.322;2023-04-24T05:27:44;14.00;99.90
18266;DHT22;9259;48.194;16.322;2023-04-24T05:30:13;14.20;99.90
18266;DHT22;9259;48.194;16.322;2023-04-24T05:32:41;14.30;99.90
18266;DHT22;9259;48.194;16.322;2023-04-24T05:35:08;14.30;99.90
18266;DHT22;9259;48.194;16.322;2023-04-24T05:37:36;14.10;99.90
18266;DHT22;9259;48.194;16.322;2023-04-24T05:40:05;14.10;99.90
18266;DHT22;9259;48.194;16.322;2023-04-24T05:42:36;14.10;99.90
18266;DHT22;9259;48.194;16.322;2023-04-24T05:45:05;14.30;99.90
18266;DHT22;9259;48.194;16.322;2023-04-24T05:47:36;14.30;99.90
18266;DHT22;9259;48.194;16.322;2023-04-24T05:50:05;14.50;99.90
18266;DHT22;9259;48.194;16.322;2023-04-24T05:52:34;14.70;99.90
18266;DHT22;9259;48.194;16.322;2023-04-24T05:55:01;14.90;99.90
18266;DHT22;9259;48.194;16.322;2023-04-24T05:57:30;14.70;99.90
18266;DHT22;9259;48.194;16.322;2023-04-24T05:59:59;14.70;99.90
18266;DHT22;9259;48.194;16.322;2023-04-24T06:02:27;14.70;99.90
18266;DHT22;9259;48.194;16.322;2023-04-24T06:04:58;14.70;99.90
18266;DHT22;9259;48.194;16.322;2023-04-24T06:07:26;14.70;99.90
18266;DHT22;9259;48.194;16.322;2023-04-24T06:09:54;14.70;99.90
18266;DHT22;9259;48.194;16.322;2023-04-24T06:12:23;14.70;99.90
18266;DHT22;9259;48.194;16.322;2023-04-24T06:14:51;14.80;99.90
18266;DHT22;9259;48.194;16.322;2023-04-24T06:17:20;14.90;99.90
18266;DHT22;9259;48.194;16.322;2023-04-24T06:19:48;14.80;99.90
18266;DHT22;9259;48.194;16.322;2023-04-24T06:22:16;15.10;99.90
18266;DHT22;9259;48.194;16.322;2023-04-24T06:24:44;15.10;99.90
18266;DHT22;9259;48.194;16.322;2023-04-24T06:27:12;15.20;99.90
18266;DHT22;9259;48.194;16.322;2023-04-24T06:29:39;15.30;99.90
18266;DHT22;9259;48.194;16.322;2023-04-24T06:32:07;15.40;99.90
18266;DHT22;9259;48.194;16.322;2023-04-24T06:34:37;15.50;99.90
18266;DHT22;9259;48.194;16.322;2023-04-24T06:37:05;15.50;99.90
18266;DHT22;9259;48.194;16.322;2023-04-24T06:39:33;15.40;99.90
18266;DHT22;9259;48.194;16.322;2023-04-24T06:42:01;15.40;99.90
18266;DHT22;9259;48.194;16.322;2023-04-24T06:44:29;15.60;99.90
18266;DHT22;9259;48.194;16.322;2023-04-24T06:46:57;15.60;99.90
18266;DHT22;9259;48.194;16.322;2023-04-24T06:49:25;15.60;99.90
18266;DHT22;9259;48.194;16.322;2023-04-24T06:51:54;15.60;99.90
18266;DHT22;9259;48.194;16.322;2023-04-24T06:54:22;15.40;99.90
18266;DHT22;9259;48.194;16.322;2023-04-24T06:56:50;15.50;99.90
18266;DHT22;9259;48.194;16.322;2023-04-24T06:59:18;15.60;99.90
18266;DHT22;9259;48.194;16.322;2023-04-24T07:01:46;15.70;99.90
18266;DHT22;9259;48.194;16.322;2023-04-24T07:04:14;15.70;99.90
18266;DHT22;9259;48.194;16.322;2023-04-24T07:06:43;15.70;99.90
18266;DHT22;9259;48.194;16.322;2023-04-24T07:09:13;15.60;99.90
18266;DHT22;9259;48.194;16.322;2023-04-24T07:11:42;15.70;99.90
18266;DHT22;9259;48.194;16.322;2023-04-24T07:14:11;15.50;99.90
18266;DHT22;9259;48.194;16.322;2023-04-24T07:16:39;15.50;99.90
18266;DHT22;9259;48.194;16.322;2023-04-24T07:19:07;15.50;99.90
18266;DHT22;9259;48.194;16.322;2023-04-24T07:21:35;15.20;99.90
18266;DHT22;9259;48.194;16.322;2023-04-24T07:24:03;15.40;99.90
18266;DHT22;9259;48.194;16.322;2023-04-24T07:26:32;15.50;99.90
18266;DHT22;9259;48.194;16.322;2023-04-24T07:29:01;15.40;99.90
18266;DHT22;9259;48.194;16.322;2023-04-24T07:31:29;15.30;99.90
18266;DHT22;9259;48.194;16.322;2023-04-24T07:33:57;15.30;99.90
18266;DHT22;9259;48.194;16.322;2023-04-24T07:36:25;15.10;99.90
18266;DHT22;9259;48.194;16.322;2023-04-24T07:38:54;15.00;99.90
18266;DHT22;9259;48.194;16.322;2023-04-24T07:41:23;15.10;99.90
18266;DHT22;9259;48.194;16.322;2023-04-24T07:43:52;15.10;99.90
18266;DHT22;9259;48.194;16.322;2023-04-24T07:46:20;15.30;99.90
18266;DHT22;9259;48.194;16.322;2023-04-24T07:48:49;15.40;99.90
18266;DHT22;9259;48.194;16.322;2023-04-24T07:51:17;15.20;99.90
18266;DHT22;9259;48.194;16.322;2023-04-24T07:53:45;15.10;99.90
18266;DHT22;9259;48.194;16.322;2023-04-24T07:56:13;15.00;99.90
18266;DHT22;9259;48.194;16.322;2023-04-24T07:58:41;14.90;99.90
18266;DHT22;9259;48.194;16.322;2023-04-24T08:01:10;15.20;99.90
18266;DHT22;9259;48.194;16.322;2023-04-24T08:03:38;14.60;99.90
18266;DHT22;9259;48.194;16.322;2023-04-24T08:06:06;14.50;99.90
18266;DHT22;9259;48.194;16.322;2023-04-24T08:08:35;14.40;99.90
18266;DHT22;9259;48.194;16.322;2023-04-24T08:11:03;14.60;99.90
18266;DHT22;9259;48.194;16.322;2023-04-24T08:13:31;14.40;99.90
18266;DHT22;9259;48.194;16.322;2023-04-24T08:15:59;14.40;99.90
18266;DHT22;9259;48.194;16.322;2023-04-24T08:18:28;14.30;99.90
18266;DHT22;9259;48.194;16.322;2023-04-24T08:20:56;14.30;99.90
18266;DHT22;9259;48.194;16.322;2023-04-24T08:23:27;14.40;99.90
18266;DHT22;9259;48.194;16.322;2023-04-24T08:25:55;14.50;99.90
18266;DHT22;9259;48.194;16.322;2023-04-24T08:28:24;14.50;99.90
18266;DHT22;9259;48.194;16.322;2023-04-24T08:30:52;14.50;99.90
18266;DHT22;9259;48.194;16.322;2023-04-24T08:33:21;14.50;99.90
18266;DHT22;9259;48.194;16.322;2023-04-24T08:35:50;14.40;99.90
18266;DHT22;9259;48.194;16.322;2023-04-24T08:38:18;14.30;99.90
18266;DHT22;9259;48.194;16.322;2023-04-24T08:40:47;14.10;99.90
18266;DHT22;9259;48.194;16.322;2023-04-24T08:43:16;13.70;99.90
18266;DHT22;9259;48.194;16.322;2023-04-24T08:45:44;13.30;99.90
18266;DHT22;9259;48.194;16.322;2023-04-24T08:48:12;13.10;99.90
18266;DHT22;9259;48.194;16.322;2023-04-24T08:50:42;12.90;99.90
18266;DHT22;9259;48.194;16.322;2023-04-24T08:53:12;12.80;99.90
18266;DHT22;9259;48.194;16.322;2023-04-24T08:55:41;12.80;99.90
18266;DHT22;9259;48.194;16.322;2023-04-24T08:58:11;12.70;99.90
18266;DHT22;9259;48.194;16.322;2023-04-24T09:00:39;12.70;99.90
18266;DHT22;9259;48.194;16.322;2023-04-24T09:03:14;12.70;99.90
18266;DHT22;9259;48.194;16.322;2023-04-24T09:05:43;12.60;99.90
18266;DHT22;9259;48.194;16.322;2023-04-24T09:08:17;12.70;99.90
18266;DHT22;9259;48.194;16.322;2023-04-24T09:10:46;12.60;99.90
18266;DHT22;9259;48.194;16.322;2023-04-24T09:13:14;12.60;99.90
18266;DHT22;9259;48.194;16.322;2023-04-24T09:15:42;12.60;99.90
18266;DHT22;9259;48.194;16.322;2023-04-24T09:18:11;12.50;99.90
18266;DHT22;9259;48.194;16.322;2023-04-24T09:20:57;12.50;99.90
18266;DHT22;9259;48.194;16.322;2023-04-24T09:23:28;12.60;99.90
18266;DHT22;9259;48.194;16.322;2023-04-24T09:25:58;12.70;99.90
18266;DHT22;9259;48.194;16.322;2023-04-24T09:28:31;12.60;99.90
18266;DHT22;9259;48.194;16.322;2023-04-24T09:31:04;12.60;99.90
18266;DHT22;9259;48.194;16.322;2023-04-24T09:33:33;12.60;99.90
18266;DHT22;9259;48.194;16.322;2023-04-24T09:36:01;12.60;99.90
18266;DHT22;9259;48.194;16.322;2023-04-24T09:38:35;12.70;99.90
18266;DHT22;9259;48.194;16.322;2023-04-24T09:41:05;12.70;99.90
18266;DHT22;9259;48.194;16.322;2023-04-24T09:43:35;12.80;99.90
18266;DHT22;9259;48.194;16.322;2023-04-24T09:46:05;12.90;99.90
18266;DHT22;9259;48.194;16.322;2023-04-24T09:48:37;12.80;99.90
18266;DHT22;9259;48.194;16.322;2023-04-24T09:51:06;12.80;99.90
18266;DHT22;9259;48.194;16.322;2023-04-24T09:53:38;13.00;99.90
18266;DHT22;9259;48.194;16.322;2023-04-24T09:56:07;13.00;99.90
18266;DHT22;9259;48.194;16.322;2023-04-24T09:58:36;13.00;99.90
18266;DHT22;9259;48.194;16.322;2023-04-24T10:01:04;12.90;99.90
18266;DHT22;9259;48.194;16.322;2023-04-24T10:03:33;12.80;99.90
18266;DHT22;9259;48.194;16.322;2023-04-24T10:06:02;12.80;99.90
18266;DHT22;9259;48.194;16.322;2023-04-24T10:08:35;12.80;99.90
18266;DHT22;9259;48.194;16.322;2023-04-24T10:11:06;13.00;99.90
18266;DHT22;9259;48.194;16.322;2023-04-24T10:13:34;13.00;99.90
18266;DHT22;9259;48.194;16.322;2023-04-24T10:16:03;12.90;99.90
18266;DHT22;9259;48.194;16.322;2023-04-24T10:18:32;13.20;99.90
18266;DHT22;9259;48.194;16.322;2023-04-24T10:21:01;12.90;99.90
18266;DHT22;9259;48.194;16.322;2023-04-24T10:23:30;12.90;99.90
18266;DHT22;9259;48.194;16.322;2023-04-24T10:26:00;12.90;99.90
18266;DHT22;9259;48.194;16.322;2023-04-24T10:28:30;12.90;99.90
18266;DHT22;9259;48.194;16.322;2023-04-24T10:30:59;12.80;99.90
18266;DHT22;9259;48.194;16.322;2023-04-24T10:33:28;12.70;99.90
18266;DHT22;9259;48.194;16.322;2023-04-24T10:35:57;12.70;99.90
18266;DHT22;9259;48.194;16.322;2023-04-24T10:38:28;12.70;99.90
18266;DHT22;9259;48.194;16.322;2023-04-24T10:41:07;12.70;99.90
18266;DHT22;9259;48.194;16.322;2023-04-24T10:43:36;12.60;99.90
18266;DHT22;9259;48.194;16.322;2023-04-24T10:46:07;12.50;99.90
18266;DHT22;9259;48.194;16.322;2023-04-24T10:48:42;12.50;99.90
18266;DHT22;9259;48.194;16.322;2023-04-24T10:51:12;12.60;99.90
18266;DHT22;9259;48.194;16.322;2023-04-24T10:53:41;12.60;99.90
18266;DHT22;9259;48.194;16.322;2023-04-24T10:56:11;12.60;99.90
18266;DHT22;9259;48.194;16.322;2023-04-24T10:58:41;12.60;99.90
18266;DHT22;9259;48.194;16.322;2023-04-24T11:01:23;12.60;99.90
18266;DHT22;9259;48.194;16.322;2023-04-24T11:03:55;12.50;99.90
18266;DHT22;9259;48.194;16.322;2023-04-24T11:06:30;12.50;99.90
18266;DHT22;9259;48.194;16.322;2023-04-24T11:09:03;12.50;99.90
18266;DHT22;9259;48.194;16.322;2023-04-24T11:11:35;12.60;99.90
18266;DHT22;9259;48.194;16.322;2023-04-24T11:14:07;12.60;99.90
18266;DHT22;9259;48.194;16.322;2023-04-24T11:16:45;12.60;99.90
18266;DHT22;9259;48.194;16.322;2023-04-24T11:19:21;12.60;99.90
18266;DHT22;9259;48.194;16.322;2023-04-24T11:21:56;12.70;99.90
18266;DHT22;9259;48.194;16.322;2023-04-24T11:24:31;12.70;99.90
18266;DHT22;9259;48.194;16.322;2023-04-24T11:27:07;12.60;99.90
18266;DHT22;9259;48.194;16.322;2023-04-24T11:29:41;12.60;99.90
18266;DHT22;9259;48.194;16.322;2023-04-24T11:32:19;12.70;99.90
18266;DHT22;9259;48.194;16.322;2023-04-24T11:34:52;12.70;99.90
18266;DHT22;9259;48.194;16.322;2023-04-24T11:37:22;12.70;99.90
18266;DHT22;9259;48.194;16.322;2023-04-24T11:39:56;12.70;99.90
18266;DHT22;9259;48.194;16.322;2023-04-24T11:42:26;12.80;99.90
18266;DHT22;9259;48.194;16.322;2023-04-24T11:44:55;12.90;99.90
18266;DHT22;9259;48.194;16.322;2023-04-24T11:47:30;12.90;99.90
18266;DHT22;9259;48.194;16.322;2023-04-24T11:50:00;12.90;99.90
18266;DHT22;9259;48.194;16.322;2023-04-24T11:52:29;12.90;99.90
18266;DHT22;9259;48.194;16.322;2023-04-24T11:54:57;12.90;99.90
18266;DHT22;9259;48.194;16.322;2023-04-24T11:57:26;12.90;99.90
18266;DHT22;9259;48.194;16.322;2023-04-24T11:59:59;12.90;99.90
18266;DHT22;9259;48.194;16.322;2023-04-24T12:02:28;13.00;99.90
18266;DHT22;9259;48.194;16.322;2023-04-24T12:04:56;13.10;99.90
18266;DHT22;9259;48.194;16.322;2023-04-24T12:07:24;13.10;99.90
18266;DHT22;9259;48.194;16.322;2023-04-24T12:09:56;13.20;99.90
18266;DHT22;9259;48.194;16.322;2023-04-24T12:12:27;13.50;99.90
18266;DHT22;9259;48.194;16.322;2023-04-24T12:14:57;13.80;99.90
18266;DHT22;9259;48.194;16.322;2023-04-24T12:17:27;13.80;99.90
18266;DHT22;9259;48.194;16.322;2023-04-24T12:19:58;13.80;99.90
18266;DHT22;9259;48.194;16.322;2023-04-24T12:22:28;13.90;99.90
18266;DHT22;9259;48.194;16.322;2023-04-24T12:25:05;14.10;99.90
18266;DHT22;9259;48.194;16.322;2023-04-24T12:27:34;14.10;99.90
18266;DHT22;9259;48.194;16.322;2023-04-24T12:30:04;14.20;99.90
18266;DHT22;9259;48.194;16.322;2023-04-24T12:32:33;14.10;99.90
18266;DHT22;9259;48.194;16.322;2023-04-24T12:35:04;14.00;99.90
18266;DHT22;9259;48.194;16.322;2023-04-24T12:37:33;13.90;99.90
18266;DHT22;9259;48.194;16.322;2023-04-24T12:40:05;13.90;99.90
18266;DHT22;9259;48.194;16.322;2023-04-24T12:42:36;14.10;99.90
18266;DHT22;9259;48.194;16.322;2023-04-24T12:45:10;14.10;99.90
18266;DHT22;9259;48.194;16.322;2023-04-24T12:47:40;14.10;99.90
18266;DHT22;9259;48.194;16.322;2023-04-24T12:50:09;14.10;99.90
18266;DHT22;9259;48.194;16.322;2023-04-24T12:52:38;14.10;99.90
18266;DHT22;9259;48.194;16.322;2023-04-24T12:55:07;14.10;99.90
18266;DHT22;9259;48.194;16.322;2023-04-24T12:57:38;14.10;99.90
18266;DHT22;9259;48.194;16.322;2023-04-24T13:00:08;14.10;99.90
18266;DHT22;9259;48.194;16.322;2023-04-24T13:02:39;14.10;99.90
18266;DHT22;9259;48.194;16.322;2023-04-24T13:05:08;14.10;99.90
18266;DHT22;9259;48.194;16.322;2023-04-24T13:07:37;14.10;99.90
18266;DHT22;9259;48.194;16.322;2023-04-24T13:10:06;14.10;99.90
18266;DHT22;9259;48.194;16.322;2023-04-24T13:12:36;14.10;99.90
18266;DHT22;9259;48.194;16.322;2023-04-24T13:15:06;14.10;99.90
18266;DHT22;9259;48.194;16.322;2023-04-24T13:17:35;14.20;99.90
18266;DHT22;9259;48.194;16.322;2023-04-24T13:20:03;14.30;99.90
18266;DHT22;9259;48.194;16.322;2023-04-24T13:22:32;14.50;99.90
18266;DHT22;9259;48.194;16.322;2023-04-24T13:25:00;14.40;99.90
18266;DHT22;9259;48.194;16.322;2023-04-24T13:27:28;14.60;99.90
18266;DHT22;9259;48.194;16.322;2023-04-24T13:29:58;14.70;99.90
18266;DHT22;9259;48.194;16.322;2023-04-24T13:32:26;14.80;99.90
18266;DHT22;9259;48.194;16.322;2023-04-24T13:34:55;14.80;99.90
18266;DHT22;9259;48.194;16.322;2023-04-24T13:37:24;14.80;99.90
18266;DHT22;9259;48.194;16.322;2023-04-24T13:39:52;14.90;99.90
18266;DHT22;9259;48.194;16.322;2023-04-24T13:42:20;14.90;99.90
18266;DHT22;9259;48.194;16.322;2023-04-24T13:44:48;14.90;99.90
18266;DHT22;9259;48.194;16.322;2023-04-24T13:47:18;14.80;99.90
18266;DHT22;9259;48.194;16.322;2023-04-24T13:49:47;13.90;99.90
18266;DHT22;9259;48.194;16.322;2023-04-24T13:52:14;14.50;99.90
18266;DHT22;9259;48.194;16.322;2023-04-24T13:54:43;14.20;99.90
18266;DHT22;9259;48.194;16.322;2023-04-24T13:57:10;14.10;99.90
18266;DHT22;9259;48.194;16.322;2023-04-24T13:59:38;14.00;99.90
18266;DHT22;9259;48.194;16.322;2023-04-24T14:02:06;14.00;99.90
18266;DHT22;9259;48.194;16.322;2023-04-24T14:04:36;13.80;99.90
18266;DHT22;9259;48.194;16.322;2023-04-24T14:07:03;13.80;99.90
18266;DHT22;9259;48.194;16.322;2023-04-24T14:09:31;13.80;99.90
18266;DHT22;9259;48.194;16.322;2023-04-24T14:11:59;13.80;99.90
18266;DHT22;9259;48.194;16.322;2023-04-24T14:14:28;13.70;99.90
18266;DHT22;9259;48.194;16.322;2023-04-24T14:16:57;13.60;99.90
18266;DHT22;9259;48.194;16.322;2023-04-24T14:19:25;13.60;99.90
18266;DHT22;9259;48.194;16.322;2023-04-24T14:21:54;13.60;99.90
18266;DHT22;9259;48.194;16.322;2023-04-24T14:24:24;13.70;99.90
18266;DHT22;9259;48.194;16.322;2023-04-24T14:26:52;13.70;99.90
18266;DHT22;9259;48.194;16.322;2023-04-24T14:29:20;13.80;99.90
18266;DHT22;9259;48.194;16.322;2023-04-24T14:31:48;13.80;99.90
18266;DHT22;9259;48.194;16.322;2023-04-24T14:34:16;13.90;99.90
18266;DHT22;9259;48.194;16.322;2023-04-24T14:36:44;13.90;99.90
18266;DHT22;9259;48.194;16.322;2023-04-24T14:39:13;13.80;99.90
18266;DHT22;9259;48.194;16.322;2023-04-24T14:41:41;13.90;99.90
18266;DHT22;9259;48.194;16.322;2023-04-24T14:44:09;13.80;99.90
18266;DHT22;9259;48.194;16.322;2023-04-24T14:46:37;13.80;99.90
18266;DHT22;9259;48.194;16.322;2023-04-24T14:49:05;13.70;99.90
18266;DHT22;9259;48.194;16.322;2023-04-24T14:51:35;13.50;99.90
18266;DHT22;9259;48.194;16.322;2023-04-24T14:54:03;13.40;99.90
18266;DHT22;9259;48.194;16.322;2023-04-24T14:56:38;13.40;99.90
18266;DHT22;9259;48.194;16.322;2023-04-24T14:59:07;13.40;99.90
18266;DHT22;9259;48.194;16.322;2023-04-24T15:01:35;13.40;99.90
18266;DHT22;9259;48.194;16.322;2023-04-24T15:04:03;13.20;99.90
18266;DHT22;9259;48.194;16.322;2023-04-24T15:06:31;13.00;99.90
18266;DHT22;9259;48.194;16.322;2023-04-24T15:08:59;13.00;99.90
18266;DHT22;9259;48.194;16.322;2023-04-24T15:11:27;13.00;99.90
18266;DHT22;9259;48.194;16.322;2023-04-24T15:13:56;13.00;99.90
18266;DHT22;9259;48.194;16.322;2023-04-24T15:16:24;13.00;99.90
18266;DHT22;9259;48.194;16.322;2023-04-24T15:18:53;13.00;99.90
18266;DHT22;9259;48.194;16.322;2023-04-24T15:21:21;12.80;99.90
18266;DHT22;9259;48.194;16.322;2023-04-24T15:23:48;12.80;99.90
18266;DHT22;9259;48.194;16.322;2023-04-24T15:26:17;12.90;99.90
18266;DHT22;9259;48.194;16.322;2023-04-24T15:28:45;12.90;99.90
18266;DHT22;9259;48.194;16.322;2023-04-24T15:31:14;12.80;99.90
18266;DHT22;9259;48.194;16.322;2023-04-24T15:33:42;12.80;99.90
18266;DHT22;9259;48.194;16.322;2023-04-24T15:36:10;12.70;99.90
18266;DHT22;9259;48.194;16.322;2023-04-24T15:38:39;12.60;99.90
18266;DHT22;9259;48.194;16.322;2023-04-24T15:41:06;12.10;99.90